createdAt,value
2023-01-17T00:00:03.780Z,22.7
2023-01-17T00:01:11.451Z,18.6
2023-01-17T00:02:18.798Z,16.7
2023-01-17T00:03:26.151Z,15.6
2023-01-17T00:04:33.271Z,15.8
2023-01-17T00:05:45.550Z,16.9
2023-01-17T00:06:57.662Z,13.8
2023-01-17T00:08:09.930Z,14.3
2023-01-17T00:09:21.967Z,14.4
2023-01-17T00:10:34.387Z,11.9
2023-01-17T00:11:41.479Z,13.1
2023-01-17T00:12:48.556Z,14.9
2023-01-17T00:13:58.171Z,12.8
2023-01-17T00:15:05.416Z,12.5
2023-01-17T00:16:13.071Z,12.2
2023-01-17T00:17:20.226Z,12.8
2023-01-17T00:18:27.787Z,12
2023-01-17T00:19:34.842Z,15.2
2023-01-17T00:20:47.118Z,11.7
2023-01-17T00:21:59.287Z,11.9
2023-01-17T00:23:14.542Z,12
2023-01-17T00:24:26.838Z,9.8
2023-01-17T00:25:39.012Z,10.7
2023-01-17T00:26:51.195Z,9.3
2023-01-17T00:28:03.476Z,9.2
2023-01-17T00:29:10.699Z,8.4
2023-01-17T00:30:17.659Z,9.3
2023-01-17T00:31:24.834Z,9.4
2023-01-17T00:32:31.883Z,8.1
2023-01-17T00:33:39.061Z,6.9
2023-01-17T00:34:46.256Z,7.5
2023-01-17T00:35:53.362Z,8.1
2023-01-17T00:37:00.491Z,8.4
2023-01-17T00:38:07.641Z,8.8
2023-01-17T00:39:14.763Z,9.1
2023-01-17T00:40:21.978Z,7.3
2023-01-17T00:41:29.023Z,9.9
2023-01-17T00:42:36.654Z,9.4
2023-01-17T00:43:43.827Z,10.2
2023-01-17T00:44:56.051Z,10.4
2023-01-17T00:46:08.530Z,11.8
2023-01-17T00:47:21.039Z,13.8
2023-01-17T00:48:33.247Z,11
2023-01-17T00:49:45.501Z,9.3
2023-01-17T00:50:57.680Z,10.8
2023-01-17T00:52:09.977Z,10.7
2023-01-17T00:53:22.099Z,11
2023-01-17T00:54:34.328Z,11.3
2023-01-17T00:55:46.479Z,11.6
2023-01-17T00:56:58.779Z,11.6
2023-01-17T00:58:11.063Z,11.8
2023-01-17T00:59:23.219Z,11
2023-01-17T01:00:35.412Z,11.6
2023-01-17T01:01:47.727Z,13
2023-01-17T01:02:59.924Z,13.4
2023-01-17T01:04:15.122Z,12.7
2023-01-17T01:05:27.326Z,12.3
2023-01-17T01:06:39.482Z,12.9
2023-01-17T01:07:51.803Z,11.9
2023-01-17T01:09:04.179Z,12.8
2023-01-17T01:10:16.334Z,12.5
2023-01-17T01:11:28.915Z,12.5
2023-01-17T01:12:41.120Z,13.4
2023-01-17T01:13:53.427Z,16.4
2023-01-17T01:15:05.596Z,14.1
2023-01-17T01:16:17.861Z,13.7
2023-01-17T01:17:30.051Z,13.9
2023-01-17T01:18:42.191Z,13.7
2023-01-17T01:19:54.472Z,12.9
2023-01-17T01:21:06.744Z,13
2023-01-17T01:22:19.070Z,12.3
2023-01-17T01:23:31.100Z,11
2023-01-17T01:24:45.891Z,11.4
2023-01-17T01:25:58.182Z,11.9
2023-01-17T01:27:10.629Z,13.1
2023-01-17T01:28:23.146Z,11.5
2023-01-17T01:29:35.178Z,9.7
2023-01-17T01:30:47.551Z,11.6
2023-01-17T01:31:59.705Z,11.2
2023-01-17T01:33:12.115Z,9.6
2023-01-17T01:34:24.602Z,11.8
2023-01-17T01:35:31.748Z,11.1
2023-01-17T01:36:38.921Z,10.8
2023-01-17T01:37:46.098Z,12.5
2023-01-17T01:38:53.155Z,9.6
2023-01-17T01:40:00.286Z,11.1
2023-01-17T01:41:08.055Z,10.6
2023-01-17T01:42:15.101Z,10.7
2023-01-17T01:43:22.340Z,9.8
2023-01-17T01:44:39.857Z,10.3
2023-01-17T01:45:52.732Z,10.4
2023-01-17T01:46:59.778Z,10.5
2023-01-17T01:48:07.914Z,12.7
2023-01-17T01:49:23.158Z,13.4
2023-01-17T01:50:30.328Z,11.6
2023-01-17T01:51:37.494Z,10.2
2023-01-17T01:52:44.629Z,9.2
2023-01-17T01:53:51.734Z,8.8
2023-01-17T01:54:58.971Z,9.8
2023-01-17T01:56:09.159Z,9.3
2023-01-17T01:57:16.115Z,7.3
2023-01-17T01:58:23.278Z,7
2023-01-17T01:59:30.394Z,6.7
2023-01-17T02:00:37.571Z,8.2
2023-01-17T02:01:44.848Z,7
2023-01-17T02:02:51.898Z,8.4
2023-01-17T02:03:59.032Z,7.3
2023-01-17T02:05:06.058Z,7.8
2023-01-17T02:06:13.186Z,8.1
2023-01-17T02:07:25.297Z,8.1
2023-01-17T02:08:37.623Z,7.5
2023-01-17T02:09:44.755Z,8.7
2023-01-17T02:10:51.881Z,8.5
2023-01-17T02:11:59.008Z,8.6
2023-01-17T02:13:06.185Z,8.1
2023-01-17T02:14:13.302Z,8.1
2023-01-17T02:15:20.399Z,8
2023-01-17T02:16:27.684Z,8.6
2023-01-17T02:17:40.178Z,8.7
2023-01-17T02:18:50.405Z,7.8
2023-01-17T02:20:03.641Z,8
2023-01-17T02:21:15.811Z,6.9
2023-01-17T02:22:25.515Z,8.3
2023-01-17T02:23:42.835Z,7.9
2023-01-17T02:24:55.031Z,9.2
2023-01-17T02:26:12.314Z,7.2
2023-01-17T02:27:24.494Z,8
2023-01-17T02:28:31.557Z,8
2023-01-17T02:29:41.799Z,9.3
2023-01-17T02:30:59.195Z,11.5
2023-01-17T02:32:08.842Z,9.3
2023-01-17T02:33:26.619Z,8.9
2023-01-17T02:34:36.792Z,10.6
2023-01-17T02:35:52.032Z,11.1
2023-01-17T02:37:09.366Z,8.8
2023-01-17T02:38:22.615Z,7.9
2023-01-17T02:39:36.062Z,8
2023-01-17T02:40:43.014Z,10
2023-01-17T02:41:58.270Z,7.8
2023-01-17T02:43:05.350Z,8.3
2023-01-17T02:44:12.547Z,7.7
2023-01-17T02:45:19.842Z,7.4
2023-01-17T02:46:26.776Z,7.5
2023-01-17T02:47:33.902Z,7.6
2023-01-17T02:48:41.038Z,8.4
2023-01-17T02:49:48.141Z,8.9
2023-01-17T02:50:55.275Z,8.6
2023-01-17T02:52:10.529Z,9.9
2023-01-17T02:53:23.146Z,9.3
2023-01-17T02:54:32.934Z,9.7
2023-01-17T02:55:45.265Z,9.4
2023-01-17T02:57:00.410Z,10.1
2023-01-17T02:58:12.730Z,9
2023-01-17T02:59:24.776Z,8.7
2023-01-17T03:00:42.209Z,8.7
2023-01-17T03:01:59.757Z,7.5
2023-01-17T03:03:12.279Z,7.1
2023-01-17T03:04:24.866Z,7.8
2023-01-17T03:05:38.226Z,7.2
2023-01-17T03:06:50.490Z,7.7
2023-01-17T03:07:57.400Z,6.8
2023-01-17T03:09:04.696Z,7.1
2023-01-17T03:10:11.775Z,7
2023-01-17T03:11:18.980Z,5.9
2023-01-17T03:12:26.637Z,7.2
2023-01-17T03:13:33.646Z,6.6
2023-01-17T03:14:40.798Z,6.3
2023-01-17T03:15:47.947Z,7
2023-01-17T03:16:55.117Z,7.1
2023-01-17T03:18:02.172Z,8.1
2023-01-17T03:19:09.257Z,7
2023-01-17T03:20:16.472Z,7.1
2023-01-17T03:21:24.069Z,7.9
2023-01-17T03:22:31.153Z,7.5
2023-01-17T03:23:38.306Z,7
2023-01-17T03:24:45.418Z,6.2
2023-01-17T03:25:52.809Z,7.3
2023-01-17T03:26:59.781Z,6.6
2023-01-17T03:28:06.805Z,8
2023-01-17T03:29:14.029Z,7.1
2023-01-17T03:30:21.156Z,7.3
2023-01-17T03:31:28.312Z,8.3
2023-01-17T03:32:35.404Z,7.2
2023-01-17T03:33:42.561Z,7.1
2023-01-17T03:34:49.714Z,7.5
2023-01-17T03:35:56.757Z,8.9
2023-01-17T03:37:04.027Z,7.2
2023-01-17T03:38:11.089Z,7.2
2023-01-17T03:39:18.207Z,7.7
2023-01-17T03:40:25.330Z,7.6
2023-01-17T03:41:32.425Z,7.4
2023-01-17T03:42:39.568Z,7.8
2023-01-17T03:43:46.802Z,7.7
2023-01-17T03:44:53.948Z,8
2023-01-17T03:46:01.073Z,8.1
2023-01-17T03:47:08.117Z,9.5
2023-01-17T03:48:15.217Z,8.5
2023-01-17T03:49:22.422Z,8.8
2023-01-17T03:50:29.533Z,8.4
2023-01-17T03:51:36.637Z,9.3
2023-01-17T03:52:43.901Z,8
2023-01-17T03:53:50.909Z,7.5
2023-01-17T03:54:58.071Z,7.2
2023-01-17T03:56:05.243Z,9.5
2023-01-17T03:57:21.739Z,7.6
2023-01-17T03:58:29.029Z,7.4
2023-01-17T03:59:36.273Z,8.8
2023-01-17T04:00:43.406Z,7.9
2023-01-17T04:01:50.556Z,9.6
2023-01-17T04:02:58.726Z,8.5
2023-01-17T04:04:05.814Z,9.6
2023-01-17T04:05:12.861Z,9.4
2023-01-17T04:06:20.086Z,8
2023-01-17T04:07:27.162Z,8.7
2023-01-17T04:08:34.279Z,8.6
2023-01-17T04:09:41.490Z,8.6
2023-01-17T04:10:48.639Z,8.9
2023-01-17T04:11:55.912Z,8.5
2023-01-17T04:13:08.210Z,9.9
2023-01-17T04:14:15.658Z,8.3
2023-01-17T04:15:22.849Z,8.8
2023-01-17T04:16:30.005Z,10.2
2023-01-17T04:17:37.058Z,7.8
2023-01-17T04:18:50.350Z,7.8
2023-01-17T04:19:57.387Z,7.8
2023-01-17T04:21:04.565Z,8.1
2023-01-17T04:22:11.706Z,7.1
2023-01-17T04:23:18.770Z,8.1
2023-01-17T04:24:28.718Z,8.7
2023-01-17T04:25:36.091Z,8.6
2023-01-17T04:26:43.147Z,8.4
2023-01-17T04:27:50.242Z,9.6
2023-01-17T04:28:57.457Z,8.5
2023-01-17T04:30:04.751Z,8.9
2023-01-17T04:31:12.857Z,9.3
2023-01-17T04:32:19.850Z,8.7
2023-01-17T04:33:26.987Z,8.7
2023-01-17T04:34:34.143Z,10.7
2023-01-17T04:35:41.301Z,10
2023-01-17T04:36:48.413Z,10.7
2023-01-17T04:37:55.523Z,12.6
2023-01-17T04:39:02.697Z,12.6
2023-01-17T04:40:09.786Z,11.6
2023-01-17T04:41:16.919Z,11.2
2023-01-17T04:42:24.032Z,11.4
2023-01-17T04:43:31.208Z,11.4
2023-01-17T04:44:38.334Z,11.1
2023-01-17T04:45:45.612Z,12.1
2023-01-17T04:46:52.654Z,12
2023-01-17T04:47:59.734Z,10.3
2023-01-17T04:49:07.018Z,10
2023-01-17T04:50:14.568Z,9.7
2023-01-17T04:51:21.718Z,11.1
2023-01-17T04:52:28.715Z,10
2023-01-17T04:53:35.850Z,11.5
2023-01-17T04:54:42.985Z,10.4
2023-01-17T04:55:50.186Z,10.2
2023-01-17T04:56:57.406Z,10.7
2023-01-17T04:58:04.358Z,12.3
2023-01-17T04:59:11.509Z,12.9
2023-01-17T05:00:18.700Z,16
2023-01-17T05:01:25.854Z,14.2
2023-01-17T05:02:32.986Z,12.6
2023-01-17T05:03:40.980Z,12.8
2023-01-17T05:04:48.118Z,13.4
2023-01-17T05:05:55.299Z,12.3
2023-01-17T05:07:02.450Z,13.1
2023-01-17T05:08:09.517Z,14.1
2023-01-17T05:09:16.710Z,22.4
2023-01-17T05:10:23.754Z,24.4
2023-01-17T05:11:30.918Z,24.9
2023-01-17T05:12:37.984Z,21.2
2023-01-17T05:13:45.134Z,17.8
2023-01-17T05:14:52.322Z,17.8
2023-01-17T05:15:59.405Z,17.8
2023-01-17T05:17:06.589Z,15.8
2023-01-17T05:18:13.654Z,15.6
2023-01-17T05:19:21.044Z,17.3
2023-01-17T05:20:27.904Z,17.6
2023-01-17T05:21:35.110Z,19.1
2023-01-17T05:22:42.362Z,16.6
2023-01-17T05:23:49.338Z,20.2
2023-01-17T05:24:56.470Z,18.9
2023-01-17T05:26:03.714Z,18.6
2023-01-17T05:27:10.798Z,18.9
2023-01-17T05:28:17.821Z,20.5
2023-01-17T05:29:25.028Z,20
2023-01-17T05:30:32.042Z,21.7
2023-01-17T05:31:39.317Z,20.2
2023-01-17T05:32:47.899Z,21.5
2023-01-17T05:33:55.030Z,22.2
2023-01-17T05:35:02.270Z,21.6
2023-01-17T05:36:09.964Z,22.5
2023-01-17T05:37:17.526Z,20.5
2023-01-17T05:38:24.577Z,21.7
2023-01-17T05:39:31.696Z,21.6
2023-01-17T05:40:38.792Z,21.3
2023-01-17T05:41:46.044Z,22
2023-01-17T05:42:53.210Z,20.7
2023-01-17T05:44:00.370Z,21.4
2023-01-17T05:45:07.955Z,18.8
2023-01-17T05:46:15.140Z,17.1
2023-01-17T05:47:22.230Z,17.1
2023-01-17T05:48:29.283Z,15.1
2023-01-17T05:49:36.476Z,16.2
2023-01-17T05:50:43.565Z,15.6
2023-01-17T05:51:52.399Z,15.8
2023-01-17T05:52:58.220Z,15.9
2023-01-17T05:54:05.394Z,16.9
2023-01-17T05:55:12.676Z,16.9
2023-01-17T05:56:20.289Z,15.3
2023-01-17T05:57:27.298Z,18.5
2023-01-17T05:58:34.453Z,19.2
2023-01-17T05:59:41.673Z,17
2023-01-17T06:00:48.813Z,17.9
2023-01-17T06:01:55.941Z,17.7
2023-01-17T06:03:03.093Z,18.9
2023-01-17T06:04:10.063Z,18.2
2023-01-17T06:05:17.250Z,17
2023-01-17T06:06:24.415Z,19.5
2023-01-17T06:07:31.429Z,16.6
2023-01-17T06:08:38.786Z,17.9
2023-01-17T06:09:45.894Z,18.1
2023-01-17T06:10:52.953Z,19.6
2023-01-17T06:12:00.013Z,19.4
2023-01-17T06:13:07.177Z,21.4
2023-01-17T06:14:14.403Z,19.5
2023-01-17T06:15:21.481Z,19.7
2023-01-17T06:16:28.537Z,19.4
2023-01-17T06:17:35.605Z,17.5
2023-01-17T06:18:42.783Z,18.8
2023-01-17T06:19:49.879Z,18.5
2023-01-17T06:20:57.095Z,17.5
2023-01-17T06:22:04.223Z,18.2
2023-01-17T06:23:11.334Z,19.9
2023-01-17T06:24:18.506Z,20.6
2023-01-17T06:25:25.569Z,16.9
2023-01-17T06:26:32.702Z,17.5
2023-01-17T06:27:39.962Z,18.8
2023-01-17T06:28:47.166Z,16.8
2023-01-17T06:29:54.625Z,16.6
2023-01-17T06:31:02.714Z,18.1
2023-01-17T06:32:09.885Z,17.5
2023-01-17T06:33:17.046Z,18
2023-01-17T06:34:24.163Z,18.2
2023-01-17T06:35:31.412Z,19.4
2023-01-17T06:36:38.518Z,19.3
2023-01-17T06:37:45.566Z,18.1
2023-01-17T06:38:55.797Z,19.4
2023-01-17T06:40:02.974Z,17.1
2023-01-17T06:41:10.536Z,16.9
2023-01-17T06:42:17.501Z,19
2023-01-17T06:43:25.861Z,18.5
2023-01-17T06:44:32.916Z,19.8
2023-01-17T06:45:40.224Z,17.7
2023-01-17T06:46:47.203Z,19.1
2023-01-17T06:47:54.309Z,18.6
2023-01-17T06:49:01.552Z,18.6
2023-01-17T06:50:08.609Z,16.7
2023-01-17T06:51:15.711Z,18.5
2023-01-17T06:52:22.930Z,18.8
2023-01-17T06:53:29.966Z,19.2
2023-01-17T06:54:37.075Z,16.8
2023-01-17T06:55:44.220Z,17.2
2023-01-17T06:56:51.513Z,18.2
2023-01-17T06:57:58.777Z,17.7
2023-01-17T06:59:06.192Z,17.4
2023-01-17T07:00:13.597Z,19.4
2023-01-17T07:01:20.985Z,17.8
2023-01-17T07:02:27.964Z,16.7
2023-01-17T07:03:36.157Z,18
2023-01-17T07:04:43.236Z,18.4
2023-01-17T07:05:50.411Z,16.8
2023-01-17T07:06:57.574Z,18.2
2023-01-17T07:08:04.710Z,18.6
2023-01-17T07:09:11.901Z,18.2
2023-01-17T07:10:18.941Z,18.1
2023-01-17T07:11:26.132Z,17.7
2023-01-17T07:12:34.033Z,18.7
2023-01-17T07:13:41.380Z,18.4
2023-01-17T07:14:48.485Z,19.3
2023-01-17T07:15:55.634Z,18.9
2023-01-17T07:17:05.817Z,20.3
2023-01-17T07:18:12.845Z,17.6
2023-01-17T07:19:20.072Z,20
2023-01-17T07:20:28.248Z,18
2023-01-17T07:21:35.244Z,20
2023-01-17T07:22:42.435Z,19
2023-01-17T07:23:49.600Z,22.9
2023-01-17T07:24:56.954Z,22.1
2023-01-17T07:26:04.442Z,24.1
2023-01-17T07:27:11.533Z,21.2
2023-01-17T07:28:18.694Z,22.3
2023-01-17T07:29:26.755Z,24.1
2023-01-17T07:30:33.920Z,22.4
2023-01-17T07:31:41.075Z,21.1
2023-01-17T07:32:48.080Z,22.1
2023-01-17T07:33:55.251Z,19.4
2023-01-17T07:35:02.408Z,22.9
2023-01-17T07:36:10.013Z,20.6
2023-01-17T07:37:17.246Z,22.6
2023-01-17T07:38:24.340Z,24.1
2023-01-17T07:39:31.438Z,22.6
2023-01-17T07:40:42.278Z,20.1
2023-01-17T07:41:45.741Z,19.3
2023-01-17T07:42:52.800Z,21.5
2023-01-17T07:44:05.060Z,20.9
2023-01-17T07:45:15.352Z,18.8
2023-01-17T07:46:22.408Z,19.4
2023-01-17T07:47:29.457Z,21.2
2023-01-17T07:48:36.564Z,22.5
2023-01-17T07:49:43.728Z,21
2023-01-17T07:50:50.906Z,19.9
2023-01-17T07:51:58.032Z,19.4
2023-01-17T07:53:05.688Z,18.2
2023-01-17T07:54:12.861Z,19.2
2023-01-17T07:55:19.959Z,20.5
2023-01-17T07:56:27.177Z,20.6
2023-01-17T07:57:34.130Z,21.6
2023-01-17T07:58:42.349Z,18.6
2023-01-17T07:59:49.855Z,20.2
2023-01-17T08:00:57.957Z,17.3
2023-01-17T08:02:05.367Z,18.1
2023-01-17T08:03:20.624Z,18.2
2023-01-17T08:04:27.707Z,19.7
2023-01-17T08:05:34.785Z,18.2
2023-01-17T08:06:41.870Z,18.3
2023-01-17T08:07:49.096Z,16.5
2023-01-17T08:08:56.145Z,17.5
2023-01-17T08:10:03.200Z,22.2
2023-01-17T08:11:12.377Z,20.2
2023-01-17T08:12:19.581Z,20.9
2023-01-17T08:13:28.444Z,19.6
2023-01-17T08:14:33.834Z,20.7
2023-01-17T08:15:40.915Z,21.6
2023-01-17T08:16:48.176Z,21.4
2023-01-17T08:17:55.213Z,19.4
2023-01-17T08:19:02.413Z,18.1
2023-01-17T08:20:09.496Z,20
2023-01-17T08:21:16.714Z,20.7
2023-01-17T08:22:23.792Z,20.3
2023-01-17T08:23:31.189Z,24
2023-01-17T08:24:39.010Z,21.1
2023-01-17T08:25:46.040Z,20.8
2023-01-17T08:26:53.246Z,21.8
2023-01-17T08:28:00.325Z,16.9
2023-01-17T08:29:07.477Z,17.6
2023-01-17T08:30:14.662Z,16.6
2023-01-17T08:31:23.902Z,17.8
2023-01-17T08:32:30.957Z,17.4
2023-01-17T08:33:37.976Z,15.9
2023-01-17T08:34:45.235Z,17.9
2023-01-17T08:35:52.267Z,18.2
2023-01-17T08:36:59.440Z,18.5
2023-01-17T08:38:06.485Z,17.2
2023-01-17T08:39:13.640Z,17.5
2023-01-17T08:40:20.776Z,17.7
2023-01-17T08:41:29.734Z,16.3
2023-01-17T08:42:36.994Z,18.3
2023-01-17T08:43:44.196Z,18.2
2023-01-17T08:44:51.262Z,16.4
2023-01-17T08:45:58.497Z,16
2023-01-17T08:47:05.604Z,16.8
2023-01-17T08:48:12.724Z,17.2
2023-01-17T08:49:20.335Z,15.1
2023-01-17T08:50:27.624Z,15.9
2023-01-17T08:51:34.776Z,16.4
2023-01-17T08:52:42.219Z,16.4
2023-01-17T08:53:53.337Z,16.7
2023-01-17T08:55:00.486Z,18.6
2023-01-17T08:56:07.695Z,17
2023-01-17T08:57:14.694Z,16.8
2023-01-17T08:58:21.977Z,17.6
2023-01-17T08:59:30.139Z,17
2023-01-17T09:00:37.112Z,20.2
2023-01-17T09:01:44.493Z,20.4
2023-01-17T09:02:51.452Z,19.7
2023-01-17T09:03:58.660Z,17.8
2023-01-17T09:05:05.724Z,22.7
2023-01-17T09:06:12.879Z,20
2023-01-17T09:07:20.052Z,17.7
2023-01-17T09:08:27.016Z,18.5
2023-01-17T09:09:34.280Z,20.8
2023-01-17T09:10:41.352Z,20.2
2023-01-17T09:11:48.444Z,16.8
2023-01-17T09:12:55.772Z,16.6
2023-01-17T09:14:02.961Z,16.5
2023-01-17T09:15:09.871Z,20.1
2023-01-17T09:16:17.021Z,17.3
2023-01-17T09:17:24.073Z,20.3
2023-01-17T09:18:31.261Z,19.2
2023-01-17T09:19:41.177Z,22.1
2023-01-17T09:20:49.625Z,19.6
2023-01-17T09:21:56.608Z,18.7
2023-01-17T09:23:03.812Z,20.4
2023-01-17T09:24:10.933Z,21.2
2023-01-17T09:25:18.049Z,23.2
2023-01-17T09:26:25.200Z,21.3
2023-01-17T09:27:32.244Z,23.9
2023-01-17T09:28:40.410Z,22.3
2023-01-17T09:29:47.619Z,23.1
2023-01-17T09:30:54.734Z,24.1
2023-01-17T09:32:01.801Z,23.5
2023-01-17T09:33:08.879Z,21
2023-01-17T09:34:16.187Z,22.4
2023-01-17T09:35:23.232Z,22.5
2023-01-17T09:36:30.264Z,21.2
2023-01-17T09:37:37.457Z,26.7
2023-01-17T09:38:45.563Z,22.6
2023-01-17T09:39:52.691Z,23.6
2023-01-17T09:40:59.905Z,25.6
2023-01-17T09:42:06.932Z,22.8
2023-01-17T09:43:24.324Z,22.8
2023-01-17T09:44:39.537Z,23.5
2023-01-17T09:45:52.870Z,25.7
2023-01-17T09:47:00.011Z,23.6
2023-01-17T09:48:09.642Z,21
2023-01-17T09:49:16.712Z,22.7
2023-01-17T09:50:34.030Z,19.7
2023-01-17T09:51:47.220Z,18.9
2023-01-17T09:52:54.404Z,20.8
2023-01-17T09:54:01.556Z,20.8
2023-01-17T09:55:08.753Z,19.6
2023-01-17T09:56:15.985Z,23.3
2023-01-17T09:57:23.410Z,18.9
2023-01-17T09:58:40.780Z,21.8
2023-01-17T10:00:03.128Z,19.8
2023-01-17T10:01:16.102Z,19.3
2023-01-17T10:02:26.572Z,19.4
2023-01-17T10:03:42.937Z,21.4
2023-01-17T10:04:54.997Z,19
2023-01-17T10:06:12.263Z,17.6
2023-01-17T10:07:19.420Z,19.8
2023-01-17T10:08:36.664Z,19.9
2023-01-17T10:09:49.044Z,16.1
2023-01-17T10:11:06.781Z,19.1
2023-01-17T10:12:19.059Z,15.1
2023-01-17T10:13:36.736Z,14.8
2023-01-17T10:14:51.614Z,14.1
2023-01-17T10:16:06.880Z,16.3
2023-01-17T10:17:19.057Z,12.8
2023-01-17T10:18:36.314Z,12.1
2023-01-17T10:19:49.023Z,11.8
2023-01-17T10:21:06.450Z,12.4
2023-01-17T10:22:13.434Z,11.9
2023-01-17T10:23:23.739Z,13.2
2023-01-17T10:24:41.532Z,12
2023-01-17T10:25:51.235Z,13.5
2023-01-17T10:26:58.237Z,12.6
2023-01-17T10:28:05.463Z,12.6
2023-01-17T10:29:19.537Z,12.2
2023-01-17T10:30:25.028Z,12.2
2023-01-17T10:31:37.422Z,11.5
2023-01-17T10:32:44.680Z,12.8
2023-01-17T10:33:51.837Z,14.2
2023-01-17T10:34:58.853Z,15.3
2023-01-17T10:36:05.975Z,14.3
2023-01-17T10:37:18.237Z,15.7
2023-01-17T10:38:33.488Z,14.5
2023-01-17T10:39:40.641Z,11.2
2023-01-17T10:40:47.857Z,14.5
2023-01-17T10:41:54.908Z,11.3
2023-01-17T10:43:10.357Z,12.5
2023-01-17T10:44:23.433Z,11
2023-01-17T10:45:30.569Z,11.2
2023-01-17T10:46:37.751Z,11
2023-01-17T10:47:44.723Z,11.9
2023-01-17T10:48:52.017Z,12.9
2023-01-17T10:49:59.072Z,14.1
2023-01-17T10:51:06.201Z,16.4
2023-01-17T10:52:21.466Z,12.1
2023-01-17T10:53:37.009Z,13.5
2023-01-17T10:54:49.469Z,12.5
2023-01-17T10:56:01.640Z,12.3
2023-01-17T10:57:08.864Z,15.4
2023-01-17T10:58:19.064Z,13.4
2023-01-17T10:59:26.130Z,14.2
2023-01-17T11:00:36.227Z,13
2023-01-17T11:01:51.429Z,13.7
2023-01-17T11:02:58.214Z,14.7
2023-01-17T11:04:05.295Z,14.9
2023-01-17T11:05:13.396Z,13.8
2023-01-17T11:06:23.446Z,12
2023-01-17T11:07:30.766Z,12.5
2023-01-17T11:08:37.839Z,13.7
2023-01-17T11:09:53.129Z,13.7
2023-01-17T11:11:00.220Z,15.1
2023-01-17T11:12:07.526Z,14.8
2023-01-17T11:13:24.676Z,14.7
2023-01-17T11:14:34.784Z,17.1
2023-01-17T11:15:42.010Z,15.6
2023-01-17T11:16:49.047Z,15.8
2023-01-17T11:18:01.333Z,16.1
2023-01-17T11:19:08.520Z,16.3
2023-01-17T11:20:18.253Z,15.9
2023-01-17T11:21:35.886Z,15.4
2023-01-17T11:22:43.045Z,15.7
2023-01-17T11:23:50.135Z,15.6
2023-01-17T11:24:57.284Z,16.9
2023-01-17T11:26:04.426Z,17.3
2023-01-17T11:27:11.596Z,17.4
2023-01-17T11:28:26.861Z,18.9
2023-01-17T11:29:35.965Z,15.3
2023-01-17T11:30:41.195Z,15
2023-01-17T11:31:53.320Z,16.4
2023-01-17T11:33:00.461Z,16.8
2023-01-17T11:34:07.493Z,18.5
2023-01-17T11:35:17.236Z,14.4
2023-01-17T11:36:29.592Z,15.7
2023-01-17T11:37:36.640Z,16.8
2023-01-17T11:38:43.647Z,17.4
2023-01-17T11:40:01.035Z,17.1
2023-01-17T11:41:11.228Z,16.1
2023-01-17T11:42:23.432Z,14.1
2023-01-17T11:43:33.511Z,15.9
2023-01-17T11:44:40.723Z,19.4
2023-01-17T11:45:47.772Z,28.7
2023-01-17T11:47:02.551Z,21.5
2023-01-17T11:48:14.823Z,19.3
2023-01-17T11:49:21.909Z,13.2
2023-01-17T11:50:29.085Z,13.3
2023-01-17T11:51:36.175Z,12.4
2023-01-17T11:52:43.364Z,12.7
2023-01-17T11:53:50.413Z,13.4
2023-01-17T11:54:57.584Z,12.9
2023-01-17T11:56:04.711Z,14.3
2023-01-17T11:57:11.870Z,14.4
2023-01-17T11:58:24.079Z,13.6
2023-01-17T11:59:31.259Z,11.7
2023-01-17T12:00:41.452Z,12.6
2023-01-17T12:01:48.512Z,12.9
2023-01-17T12:03:00.700Z,16
2023-01-17T12:04:10.624Z,12
2023-01-17T12:05:28.636Z,11.1
2023-01-17T12:06:57.072Z,13.6
2023-01-17T12:08:04.479Z,11.7
2023-01-17T12:09:22.644Z,12.1
2023-01-17T12:10:38.263Z,11
2023-01-17T12:11:48.648Z,13.3
2023-01-17T12:13:09.027Z,13.6
2023-01-17T12:14:24.355Z,12.8
2023-01-17T12:15:34.545Z,12.2
2023-01-17T12:16:47.159Z,10.9
2023-01-17T12:18:04.502Z,12
2023-01-17T12:19:14.222Z,8.9
2023-01-17T12:20:32.059Z,10.2
2023-01-17T12:21:47.724Z,10.9
2023-01-17T12:23:05.306Z,10.7
2023-01-17T12:24:12.301Z,10.3
2023-01-17T12:25:29.533Z,11.5
2023-01-17T12:26:39.697Z,12.9
2023-01-17T12:27:57.160Z,10.4
2023-01-17T12:29:14.300Z,12.2
2023-01-17T12:30:29.103Z,11
2023-01-17T12:31:41.984Z,12.4
2023-01-17T12:32:49.019Z,10.5
2023-01-17T12:34:01.106Z,9.6
2023-01-17T12:35:16.433Z,10.1
2023-01-17T12:36:26.105Z,10.1
2023-01-17T12:37:38.269Z,11.4
2023-01-17T12:38:45.485Z,15.7
2023-01-17T12:39:52.519Z,12.8
2023-01-17T12:40:59.743Z,14.5
2023-01-17T12:42:11.952Z,13.3
2023-01-17T12:43:22.096Z,12.9
2023-01-17T12:44:32.270Z,13.4
2023-01-17T12:45:47.117Z,12.8
2023-01-17T12:46:54.307Z,10.5
2023-01-17T12:48:03.812Z,10
2023-01-17T12:49:19.175Z,9.5
2023-01-17T12:50:36.334Z,10.9
2023-01-17T12:51:43.504Z,11.7
2023-01-17T12:52:50.715Z,9.9
2023-01-17T12:54:05.914Z,9.7
2023-01-17T12:55:18.098Z,11.9
2023-01-17T12:56:30.378Z,11.8
2023-01-17T12:57:42.549Z,10.7
2023-01-17T12:58:49.702Z,9.9
2023-01-17T13:00:07.050Z,11.9
2023-01-17T13:01:17.189Z,10.4
2023-01-17T13:02:26.831Z,10.7
2023-01-17T13:03:36.502Z,11.7
2023-01-17T13:04:57.573Z,12
2023-01-17T13:05:50.755Z,12
2023-01-17T13:06:57.878Z,10
2023-01-17T13:08:10.057Z,11.4
2023-01-17T13:09:24.934Z,11.6
2023-01-17T13:10:34.447Z,10.6
2023-01-17T13:11:44.651Z,11.3
2023-01-17T13:12:51.757Z,10.4
2023-01-17T13:13:58.923Z,10.7
2023-01-17T13:15:06.079Z,12.3
2023-01-17T13:16:18.383Z,12.1
2023-01-17T13:17:25.399Z,12
2023-01-17T13:18:40.193Z,10.4
2023-01-17T13:19:47.386Z,10.6
2023-01-17T13:21:00.051Z,9.3
2023-01-17T13:22:14.864Z,9.4
2023-01-17T13:23:21.967Z,11
2023-01-17T13:24:37.219Z,11.4
2023-01-17T13:25:46.927Z,10.4
2023-01-17T13:26:54.037Z,9.8
2023-01-17T13:28:11.311Z,8.9
2023-01-17T13:29:23.665Z,10
2023-01-17T13:30:36.378Z,11.9
2023-01-17T13:31:43.774Z,11.2
2023-01-17T13:32:56.207Z,11.5
2023-01-17T13:34:08.484Z,11.2
2023-01-17T13:35:25.803Z,10.4
2023-01-17T13:36:35.983Z,9.2
2023-01-17T13:37:48.079Z,11.5
2023-01-17T13:39:05.392Z,12.1
2023-01-17T13:40:22.776Z,13.4
2023-01-17T13:41:34.944Z,13.6
2023-01-17T13:42:49.663Z,11.7
2023-01-17T13:44:04.475Z,11.4
2023-01-17T13:45:16.802Z,14.2
2023-01-17T13:46:23.809Z,11.6
2023-01-17T13:47:30.967Z,13.5
2023-01-17T13:48:39.199Z,13.7
2023-01-17T13:49:46.251Z,11.1
2023-01-17T13:50:53.327Z,12.5
2023-01-17T13:52:05.549Z,12.2
2023-01-17T13:53:23.261Z,13.1
2023-01-17T13:54:30.406Z,12.9
2023-01-17T13:55:37.719Z,12.3
2023-01-17T13:56:47.267Z,12.6
2023-01-17T13:57:54.349Z,11.5
2023-01-17T13:59:01.567Z,9.3
2023-01-17T14:00:08.653Z,9.8
2023-01-17T14:01:15.878Z,8.5
2023-01-17T14:02:25.915Z,9.3
2023-01-17T14:03:36.169Z,10.9
2023-01-17T14:04:53.521Z,10
2023-01-17T14:06:08.248Z,11
2023-01-17T14:07:25.506Z,11.2
2023-01-17T14:08:32.604Z,12.3
2023-01-17T14:09:39.722Z,10.6
2023-01-17T14:10:46.961Z,11.4
2023-01-17T14:11:57.019Z,9.9
2023-01-17T14:13:06.648Z,9.4
2023-01-17T14:14:24.004Z,10.6
2023-01-17T14:15:39.183Z,11.4
2023-01-17T14:16:51.434Z,10.3
2023-01-17T14:17:58.559Z,10.3
2023-01-17T14:19:05.647Z,12.4
2023-01-17T14:20:12.777Z,12.7
2023-01-17T14:21:19.991Z,13.5
2023-01-17T14:22:32.626Z,15.6
2023-01-17T14:23:39.811Z,14.8
2023-01-17T14:24:49.487Z,14.7
2023-01-17T14:26:04.636Z,14.9
2023-01-17T14:27:14.371Z,16.2
2023-01-17T14:28:21.444Z,17.1
2023-01-17T14:29:31.073Z,18.5
2023-01-17T14:30:48.384Z,22
2023-01-17T14:31:55.293Z,19.3
2023-01-17T14:33:02.074Z,19.5
2023-01-17T14:34:09.283Z,19.5
2023-01-17T14:35:16.423Z,19.2
2023-01-17T14:36:23.650Z,23
2023-01-17T14:37:30.611Z,18.3
2023-01-17T14:38:46.016Z,19.3
2023-01-17T14:39:53.002Z,19.7
2023-01-17T14:41:00.104Z,19
2023-01-17T14:42:10.223Z,19.6
2023-01-17T14:43:17.418Z,20.3
2023-01-17T14:44:24.447Z,21.6
2023-01-17T14:45:31.194Z,23.3
2023-01-17T14:46:38.325Z,20.9
2023-01-17T14:47:46.555Z,27.5
2023-01-17T14:48:53.581Z,19.7
2023-01-17T14:50:05.927Z,22.2
2023-01-17T14:51:20.643Z,19.2
2023-01-17T14:52:27.733Z,19
2023-01-17T14:53:34.870Z,20.5
2023-01-17T14:54:42.080Z,19.3
2023-01-17T14:55:52.101Z,18
2023-01-17T14:57:05.379Z,17.6
2023-01-17T14:58:22.807Z,20
2023-01-17T14:59:29.791Z,19.5
2023-01-17T15:00:36.851Z,17.1
2023-01-17T15:01:48.047Z,19.8
2023-01-17T15:02:59.195Z,23.3
2023-01-17T15:04:06.254Z,23.3
2023-01-17T15:05:23.766Z,21.5
2023-01-17T15:06:30.667Z,22.2
2023-01-17T15:07:40.952Z,21.3
2023-01-17T15:08:48.050Z,21.9
2023-01-17T15:09:58.209Z,22.5
2023-01-17T15:11:05.417Z,20.8
2023-01-17T15:12:17.583Z,21.6
2023-01-17T15:13:35.572Z,20.4
2023-01-17T15:14:36.928Z,21.7
2023-01-17T15:15:44.023Z,22.3
2023-01-17T15:16:51.132Z,24.6
2023-01-17T15:17:58.188Z,25.5
2023-01-17T15:19:10.515Z,29.2
2023-01-17T15:20:17.655Z,29.6
2023-01-17T15:21:24.898Z,27.2
2023-01-17T15:22:34.881Z,27.1
2023-01-17T15:23:42.144Z,25.9
2023-01-17T15:24:52.264Z,25.8
2023-01-17T15:25:59.463Z,23.1
2023-01-17T15:27:06.534Z,22
2023-01-17T15:28:16.670Z,23.8
2023-01-17T15:29:23.793Z,22.3
2023-01-17T15:30:33.525Z,19.5
2023-01-17T15:31:40.521Z,20
2023-01-17T15:32:50.535Z,19.4